Time;durP1;ratioP1;P1;durP2;ratioP2;P2;SDS_P1;SDS_P2;PMS_P1;PMS_P2;Temp;Humidity;BMP_temperature;BMP_pressure;BME280_temperature;BME280_humidity;BME280_pressure;Samples;Min_cycle;Max_cycle;Signal;HPM_P1;HPM_P2
2023/07/13 00:01:43;;;;;;;5.80;2.45;;;;;;;15.68;77.04;101256.78;5062061;28;20032;-80
2023/07/13 00:04:09;;;;;;;11.70;2.95;;;;;;;15.61;77.43;101259.19;5069968;28;20035;-80
2023/07/13 00:06:35;;;;;;;13.38;3.33;;;;;;;15.63;78.07;101262.59;5067826;28;20024;-80
2023/07/13 00:09:01;;;;;;;12.68;3.28;;;;;;;15.61;77.89;101263.72;5090917;28;20538;-80
2023/07/13 00:11:27;;;;;;;15.63;3.30;;;;;;;15.63;77.78;101259.06;5069838;28;20028;-79
2023/07/13 00:13:52;;;;;;;17.63;3.78;;;;;;;15.59;77.90;101257.59;5079436;28;20494;-79
2023/07/13 00:16:18;;;;;;;13.13;3.33;;;;;;;15.55;77.68;101251.59;5055540;28;20393;-80
2023/07/13 00:18:44;;;;;;;15.45;2.92;;;;;;;15.58;78.46;101247.75;5044735;28;20032;-80
2023/07/13 00:21:10;;;;;;;16.23;3.45;;;;;;;15.60;79.02;101249.34;5068557;28;20037;-80
2023/07/13 00:23:38;;;;;;;7.70;3.08;;;;;;;15.59;78.34;101250.31;5043231;28;20024;-79
2023/07/13 00:26:06;;;;;;;16.80;3.72;;;;;;;15.58;78.57;101253.16;5045986;28;20040;-80
2023/07/13 00:28:32;;;;;;;17.38;3.40;;;;;;;15.60;78.69;101259.31;5048660;28;20025;-79
2023/07/13 00:30:58;;;;;;;7.78;2.30;;;;;;;15.57;78.05;101251.47;5050778;28;20020;-80
2023/07/13 00:33:23;;;;;;;10.07;2.75;;;;;;;15.54;79.01;101256.16;5066584;28;20029;-79
2023/07/13 00:35:49;;;;;;;13.45;3.30;;;;;;;15.51;78.67;101261.00;5062603;28;20023;-80
2023/07/13 00:38:15;;;;;;;12.77;3.15;;;;;;;15.53;79.11;101267.13;5046694;28;20039;-80
2023/07/13 00:40:41;;;;;;;16.08;3.35;;;;;;;15.46;79.19;101269.53;5072580;28;20029;-80
2023/07/13 00:43:15;;;;;;;11.18;2.95;;;;;;;15.47;79.71;101263.09;5046761;28;20499;-80
2023/07/13 00:45:43;;;;;;;7.95;2.78;;;;;;;15.44;79.77;101266.06;5069886;28;20401;-80
2023/07/13 00:48:09;;;;;;;15.80;3.38;;;;;;;15.40;79.60;101261.06;5048790;28;20029;-80
2023/07/13 00:50:35;;;;;;;10.52;3.05;;;;;;;15.42;80.25;101264.47;5067081;28;20481;-79
2023/07/13 00:53:00;;;;;;;10.43;3.08;;;;;;;15.41;79.79;101263.63;5068454;28;20028;-79
2023/07/13 00:55:27;;;;;;;13.38;3.13;;;;;;;15.43;81.29;101255.38;5061717;28;20027;-80
2023/07/13 00:57:52;;;;;;;13.60;3.10;;;;;;;15.43;81.10;101255.38;5066983;28;20028;-80
2023/07/13 01:00:21;;;;;;;12.90;2.97;;;;;;;15.43;81.15;101261.63;5040476;28;20039;-79
2023/07/13 01:02:48;;;;;;;13.52;3.65;;;;;;;15.41;81.20;101252.81;5054053;28;20095;-78
2023/07/13 01:05:16;;;;;;;10.90;2.78;;;;;;;15.41;80.98;101265.50;5061731;28;20025;-78
2023/07/13 01:07:43;;;;;;;11.85;2.95;;;;;;;15.42;81.49;101257.25;5054059;28;20485;-78
2023/07/13 01:10:09;;;;;;;8.70;2.67;;;;;;;15.37;81.10;101254.06;5044523;28;20041;-78
2023/07/13 01:12:35;;;;;;;13.82;2.80;;;;;;;15.37;82.04;101249.53;5044480;28;20047;-78
2023/07/13 01:15:02;;;;;;;11.27;3.42;;;;;;;15.39;81.45;101246.69;5064944;28;20044;-78
2023/07/13 01:17:29;;;;;;;16.92;3.15;;;;;;;15.40;82.17;101259.19;5070300;28;20546;-78
2023/07/13 01:19:55;;;;;;;9.70;2.80;;;;;;;15.36;82.26;101265.91;5082110;28;20391;-78
2023/07/13 01:22:26;;;;;;;12.88;3.10;;;;;;;15.37;82.40;101260.34;5078411;28;20033;-78
2023/07/13 01:24:53;;;;;;;11.88;3.38;;;;;;;15.35;82.37;101267.72;5063969;28;20119;-78
2023/07/13 01:27:24;;;;;;;9.43;2.70;;;;;;;15.36;82.59;101268.63;5072412;28;20032;-78
2023/07/13 01:29:51;;;;;;;10.38;3.08;;;;;;;15.35;83.21;101267.72;5067968;28;20132;-78
2023/07/13 01:32:21;;;;;;;14.82;3.40;;;;;;;15.40;82.74;101269.19;5066155;28;20439;-78
2023/07/13 01:34:46;;;;;;;;;;;;;;;15.42;80.88;101269.91;5053993;28;20396;-78
2023/07/13 01:37:12;;;;;;;11.43;2.75;;;;;;;15.36;82.79;101269.47;5078543;28;19912;-78
2023/07/13 01:39:38;;;;;;;13.82;3.28;;;;;;;15.36;82.98;101264.03;5057847;28;20373;-78
2023/07/13 01:42:04;;;;;;;12.90;3.25;;;;;;;15.34;83.61;101271.47;5075277;28;20435;-78
2023/07/13 01:44:29;;;;;;;11.80;3.15;;;;;;;15.33;84.44;101275.16;5081704;28;20540;-78
2023/07/13 01:46:55;;;;;;;10.65;2.75;;;;;;;15.28;83.75;101280.09;5082666;28;20020;-78
2023/07/13 01:49:20;;;;;;;9.77;2.50;;;;;;;15.26;84.31;101278.53;5063485;28;20036;-78
2023/07/13 01:51:46;;;;;;;16.33;3.42;;;;;;;15.24;84.48;101275.91;5061573;28;20078;-78
2023/07/13 01:54:11;;;;;;;14.18;3.58;;;;;;;15.23;84.74;101289.59;5084573;28;20020;-78
2023/07/13 01:56:37;;;;;;;11.82;3.10;;;;;;;15.23;84.75;101278.75;5066359;28;20027;-78
2023/07/13 01:59:02;;;;;;;13.07;3.50;;;;;;;15.23;85.00;101279.66;5072720;28;20036;-78
2023/07/13 02:01:28;;;;;;;11.32;3.13;;;;;;;15.20;84.77;101279.91;5077274;28;20029;-78
2023/07/13 02:03:53;;;;;;;11.95;3.42;;;;;;;15.11;84.58;101281.56;5083940;28;20034;-78
2023/07/13 02:06:19;;;;;;;13.32;3.45;;;;;;;15.11;85.25;101280.69;5080048;28;20488;-78
2023/07/13 02:08:44;;;;;;;11.20;3.15;;;;;;;15.12;85.54;101279.69;5062555;28;20021;-78
2023/07/13 02:11:10;;;;;;;14.00;3.30;;;;;;;15.07;85.75;101281.97;5080567;28;20068;-78
2023/07/13 02:13:35;;;;;;;16.30;3.10;;;;;;;15.08;85.84;101287.25;5081083;28;20061;-78
2023/07/13 02:16:00;;;;;;;11.93;3.13;;;;;;;15.04;86.04;101293.91;5080217;28;20044;-78
2023/07/13 02:18:26;;;;;;;13.30;3.35;;;;;;;14.98;86.47;101292.56;5071939;28;20027;-78
2023/07/13 02:20:51;;;;;;;12.25;3.33;;;;;;;15.01;86.66;101283.34;5062562;28;20491;-78
2023/07/13 02:23:17;;;;;;;16.48;3.40;;;;;;;14.97;86.81;101290.00;5080741;28;20460;-78
2023/07/13 02:25:42;;;;;;;9.90;3.30;;;;;;;15.00;86.91;101284.31;5058463;28;20034;-78
2023/07/13 02:28:08;;;;;;;13.52;3.22;;;;;;;14.91;86.83;101285.97;5057630;28;20024;-78
2023/07/13 02:30:34;;;;;;;14.98;3.17;;;;;;;14.94;87.75;101285.69;5072796;28;20025;-78
2023/07/13 02:32:59;;;;;;;12.43;3.20;;;;;;;14.92;88.11;101284.97;5062696;28;20034;-78
2023/07/13 02:35:25;;;;;;;13.13;3.60;;;;;;;14.91;87.82;101291.38;5062551;28;20115;-78
2023/07/13 02:37:50;;;;;;;14.73;2.92;;;;;;;14.91;88.17;101283.25;5074878;28;20170;-78
2023/07/13 02:40:16;;;;;;;13.32;3.65;;;;;;;14.92;88.70;101289.50;5076854;28;20024;-78
2023/07/13 02:42:41;;;;;;;14.98;3.63;;;;;;;14.85;88.37;101286.47;5062620;28;20039;-78
2023/07/13 02:45:08;;;;;;;11.82;3.00;;;;;;;14.87;88.40;101287.19;5078456;28;20020;-78
2023/07/13 02:47:34;;;;;;;10.63;3.35;;;;;;;14.82;88.44;101284.88;5071193;28;20039;-78
2023/07/13 02:50:00;;;;;;;9.93;3.22;;;;;;;14.83;89.45;101288.44;5059122;28;20483;-78
2023/07/13 02:52:25;;;;;;;10.38;2.92;;;;;;;14.80;89.83;101291.41;5083974;28;20024;-78
2023/07/13 02:54:51;;;;;;;13.25;3.28;;;;;;;14.74;89.43;101290.06;5057564;28;20048;-78
2023/07/13 02:57:16;;;;;;;14.55;3.67;;;;;;;14.76;89.61;101285.41;5076403;28;20024;-78
2023/07/13 02:59:42;;;;;;;13.63;3.15;;;;;;;14.75;89.58;101282.84;5062518;28;20519;-78
2023/07/13 03:02:08;;;;;;;13.07;3.25;;;;;;;14.77;89.71;101283.56;5084746;28;20033;-78
2023/07/13 03:04:35;;;;;;;10.63;3.08;;;;;;;14.74;90.28;101284.66;5072621;28;20035;-78
2023/07/13 03:07:01;;;;;;;18.65;3.42;;;;;;;14.76;90.11;101284.53;5053030;28;20468;-78
2023/07/13 03:09:26;;;;;;;14.45;3.50;;;;;;;14.77;90.30;101286.25;5055377;28;20033;-78
2023/07/13 03:11:54;;;;;;;13.60;3.00;;;;;;;14.72;90.42;101291.22;5075384;28;20032;-78
2023/07/13 03:14:21;;;;;;;14.60;3.65;;;;;;;14.66;90.39;101288.03;5065008;28;20035;-78
2023/07/13 03:16:46;;;;;;;17.25;3.83;;;;;;;14.67;91.19;101291.56;5060806;28;20044;-78
2023/07/13 03:19:12;;;;;;;14.07;3.63;;;;;;;14.68;91.39;101287.91;5063775;28;20024;-78
2023/07/13 03:21:37;;;;;;;14.30;3.53;;;;;;;14.68;91.71;101293.31;5080128;28;20112;-78
2023/07/13 03:24:03;;;;;;;12.38;3.90;;;;;;;14.67;91.41;101295.16;5065240;28;20545;-78
2023/07/13 03:26:28;;;;;;;20.25;4.00;;;;;;;14.66;91.90;101300.69;5059248;28;20029;-78
2023/07/13 03:28:53;;;;;;;17.42;4.03;;;;;;;14.65;92.39;101289.00;5069265;28;20027;-78
2023/07/13 03:31:23;;;;;;;12.00;3.40;;;;;;;14.65;92.37;101293.56;5068912;28;20082;-78
2023/07/13 03:33:49;;;;;;;13.45;3.88;;;;;;;14.65;92.41;101301.69;5061829;28;20020;-78
2023/07/13 03:36:20;;;;;;;14.10;4.22;;;;;;;14.64;92.44;101295.41;5059760;28;20104;-78
2023/07/13 03:38:49;;;;;;;10.82;3.30;;;;;;;14.63;92.79;101304.50;5069359;28;20357;-78
2023/07/13 03:41:15;;;;;;;11.23;3.22;;;;;;;14.64;93.00;101306.25;5087225;28;20028;-78
2023/07/13 03:43:40;;;;;;;12.55;3.72;;;;;;;14.57;92.55;101305.00;5084375;28;20036;-78
2023/07/13 03:46:06;;;;;;;15.05;3.80;;;;;;;14.59;93.41;101303.00;5080297;28;20059;-78
2023/07/13 03:48:31;;;;;;;14.98;4.10;;;;;;;14.59;93.43;101303.00;5087315;28;20111;-78
2023/07/13 03:50:56;;;;;;;12.35;3.50;;;;;;;14.56;93.45;101311.38;5060851;28;20032;-78
2023/07/13 03:53:22;;;;;;;10.95;2.97;;;;;;;14.59;93.89;101313.00;5086946;28;20024;-78
2023/07/13 03:55:47;;;;;;;14.95;3.83;;;;;;;14.58;94.11;101317.50;5060606;28;20056;-78
2023/07/13 03:58:28;;;;;;;18.10;4.38;;;;;;;14.62;93.46;101321.72;5069446;28;20425;-78
2023/07/13 04:00:54;;;;;;;18.13;4.75;;;;;;;14.59;94.35;101319.25;5061973;28;20264;-78
2023/07/13 04:03:21;;;;;;;14.23;4.15;;;;;;;14.62;94.60;101321.72;5084791;28;20461;-78
2023/07/13 04:05:46;;;;;;;14.43;3.88;;;;;;;14.62;94.53;101321.72;5055729;28;20024;-78
2023/07/13 04:08:12;;;;;;;18.15;4.30;;;;;;;14.62;94.19;101324.44;5057367;28;20063;-78
2023/07/13 04:10:38;;;;;;;16.02;4.40;;;;;;;14.63;94.76;101328.00;5079328;28;20559;-78
2023/07/13 04:13:04;;;;;;;17.45;4.45;;;;;;;14.61;94.89;101341.66;5072827;28;20107;-78
2023/07/13 04:15:31;;;;;;;22.08;4.47;;;;;;;14.58;94.82;101341.88;5072715;28;20052;-78
2023/07/13 04:17:56;;;;;;;18.40;5.13;;;;;;;14.63;95.20;101336.97;5079009;28;20064;-78
2023/07/13 04:20:22;;;;;;;15.90;4.38;;;;;;;14.68;95.92;101345.59;5089382;28;20107;-78
2023/07/13 04:22:47;;;;;;;19.35;4.93;;;;;;;14.71;95.69;101343.59;5079177;28;20036;-78
2023/07/13 04:25:13;;;;;;;18.90;4.72;;;;;;;14.71;95.58;101344.44;5064063;28;20024;-78
2023/07/13 04:27:39;;;;;;;18.45;4.68;;;;;;;14.78;95.92;101342.94;5078823;28;20036;-78
2023/07/13 04:30:06;;;;;;;20.65;6.35;;;;;;;14.86;96.09;101345.00;5062803;28;20067;-78
2023/07/13 04:32:31;;;;;;;24.45;5.65;;;;;;;14.89;96.58;101339.38;5059161;28;20029;-78
2023/07/13 04:34:59;;;;;;;16.63;5.28;;;;;;;14.91;96.61;101337.38;5082230;28;20569;-78
2023/07/13 04:37:24;;;;;;;25.75;6.45;;;;;;;14.94;96.76;101339.81;5061627;28;20053;-78
2023/07/13 04:39:50;;;;;;;25.00;6.05;;;;;;;14.96;97.09;101343.25;5080291;28;20028;-78
2023/07/13 04:42:15;;;;;;;20.80;6.10;;;;;;;15.00;97.09;101357.41;5078080;28;20017;-78
2023/07/13 04:44:41;;;;;;;25.20;8.55;;;;;;;15.03;97.65;101355.28;5062724;28;20027;-78
2023/07/13 04:47:07;;;;;;;23.02;6.20;;;;;;;15.07;97.92;101355.91;5059152;28;20114;-78
2023/07/13 04:49:32;;;;;;;25.13;7.97;;;;;;;15.13;98.17;101359.94;5085688;28;20024;-78
2023/07/13 04:51:58;;;;;;;25.77;7.32;;;;;;;15.15;98.62;101358.84;5063700;28;20053;-78
2023/07/13 04:54:23;;;;;;;23.70;8.27;;;;;;;15.20;98.78;101359.28;5062438;28;20028;-78
2023/07/13 04:56:49;;;;;;;22.67;8.18;;;;;;;15.27;99.39;101359.63;5072132;28;20059;-78
2023/07/13 04:59:14;;;;;;;22.27;7.45;;;;;;;15.31;98.87;101358.34;5060149;28;20038;-78
2023/07/13 05:01:40;;;;;;;25.10;9.10;;;;;;;15.36;98.70;101358.84;5077369;28;20039;-78
2023/07/13 05:04:06;;;;;;;27.20;8.48;;;;;;;15.42;99.62;101364.69;5066986;28;20036;-78
2023/07/13 05:06:32;;;;;;;31.98;10.15;;;;;;;15.47;98.86;101373.31;5083342;28;20035;-78
2023/07/13 05:08:57;;;;;;;24.50;9.30;;;;;;;15.51;99.74;101366.66;5084774;28;20028;-78
2023/07/13 05:11:24;;;;;;;25.73;10.25;;;;;;;15.51;99.04;101361.22;5082319;28;20036;-78
2023/07/13 05:13:49;;;;;;;26.75;9.48;;;;;;;15.58;98.66;101365.13;5063716;28;20016;-78
2023/07/13 05:16:15;;;;;;;26.30;9.85;;;;;;;15.57;99.28;101370.69;5081164;28;20464;-78
2023/07/13 05:18:40;;;;;;;24.25;9.48;;;;;;;15.59;99.80;101371.38;5078333;28;20089;-78
2023/07/13 05:21:08;;;;;;;30.00;9.90;;;;;;;15.63;99.42;101378.25;5058765;28;20094;-78
2023/07/13 05:23:35;;;;;;;24.65;10.02;;;;;;;15.67;99.36;101375.16;5084770;28;20024;-78
2023/07/13 05:26:01;;;;;;;31.13;10.40;;;;;;;15.69;99.10;101381.28;5079975;28;20472;-78
2023/07/13 05:28:28;;;;;;;27.80;10.13;;;;;;;15.73;99.56;101382.75;5062161;28;20048;-78
2023/07/13 05:30:54;;;;;;;25.88;9.90;;;;;;;15.75;99.27;101387.19;5071111;28;20033;-78
2023/07/13 05:33:20;;;;;;;27.67;10.90;;;;;;;15.81;99.44;101394.81;5065159;28;20030;-78
2023/07/13 05:35:45;;;;;;;34.45;9.35;;;;;;;15.83;99.58;101396.41;5077759;28;20024;-78
2023/07/13 05:38:11;;;;;;;25.38;10.68;;;;;;;15.88;99.59;101390.56;5072789;28;20037;-78
2023/07/13 05:40:37;;;;;;;28.63;9.85;;;;;;;15.90;99.46;101392.16;5080123;28;20038;-78
2023/07/13 05:43:03;;;;;;;29.13;10.90;;;;;;;15.96;99.14;101392.59;5081488;28;20024;-78
2023/07/13 05:45:28;;;;;;;27.80;9.95;;;;;;;15.96;99.02;101390.78;5082957;28;20085;-78
2023/07/13 05:47:54;;;;;;;28.30;10.57;;;;;;;16.03;99.25;101388.38;5071203;28;20491;-78
2023/07/13 05:50:19;;;;;;;28.80;11.77;;;;;;;16.07;98.61;101397.94;5080163;28;20024;-78
2023/07/13 05:52:45;;;;;;;30.40;11.57;;;;;;;16.12;98.93;101394.81;5072006;28;20033;-78
2023/07/13 05:55:10;;;;;;;27.77;11.65;;;;;;;16.16;98.55;101401.69;5057943;28;20115;-78
2023/07/13 05:57:35;;;;;;;28.23;11.45;;;;;;;16.20;98.66;101395.88;5076480;28;20028;-78
2023/07/13 06:00:01;;;;;;;25.02;11.35;;;;;;;16.22;98.63;101393.91;5064471;28;20488;-78
2023/07/13 06:02:27;;;;;;;29.48;11.40;;;;;;;16.25;97.87;101403.59;5060808;28;20082;-78
2023/07/13 06:04:53;;;;;;;27.42;11.23;;;;;;;16.31;97.76;101407.63;5061742;28;20098;-78
2023/07/13 06:07:18;;;;;;;24.25;9.52;;;;;;;16.35;98.21;101404.50;5082161;28;20016;-78
2023/07/13 06:09:44;;;;;;;27.08;11.52;;;;;;;16.38;97.39;101412.38;5057465;28;20031;-78
2023/07/13 06:12:09;;;;;;;27.35;10.63;;;;;;;16.43;96.98;101420.94;5077437;28;20032;-78
2023/07/13 06:14:35;;;;;;;25.13;11.35;;;;;;;16.47;96.78;101426.09;5070997;28;20035;-78
2023/07/13 06:17:00;;;;;;;29.40;11.35;;;;;;;16.48;97.03;101422.41;5066238;28;20025;-75
2023/07/13 06:19:25;;;;;;;29.35;10.60;;;;;;;16.54;96.35;101419.97;5076463;28;20406;-75
2023/07/13 06:21:51;;;;;;;29.85;11.43;;;;;;;16.55;96.28;101429.84;5065301;28;20119;-76
2023/07/13 06:24:16;;;;;;;23.75;10.52;;;;;;;16.59;96.22;101425.03;5073995;28;21262;-74
2023/07/13 06:26:42;;;;;;;29.48;11.57;;;;;;;16.61;96.32;101428.44;5075609;28;20028;-75
2023/07/13 06:29:07;;;;;;;26.92;11.00;;;;;;;16.64;96.29;101428.16;5082014;28;20904;-75
2023/07/13 06:31:32;;;;;;;25.48;9.98;;;;;;;16.62;95.60;101432.88;5082200;28;20028;-75
2023/07/13 06:33:58;;;;;;;28.52;11.15;;;;;;;16.63;95.50;101431.00;5076683;28;20512;-75
2023/07/13 06:36:23;;;;;;;24.25;10.45;;;;;;;16.66;95.43;101436.16;5065956;28;20066;-76
2023/07/13 06:38:49;;;;;;;31.33;11.23;;;;;;;16.67;95.67;101440.59;5077665;28;20115;-74
2023/07/13 06:41:14;;;;;;;26.25;11.40;;;;;;;16.66;94.84;101437.03;5084138;28;20035;-75
2023/07/13 06:43:39;;;;;;;35.15;12.55;;;;;;;16.68;95.64;101445.03;5083902;28;20032;-77
2023/07/13 06:46:05;;;;;;;31.77;11.25;;;;;;;16.68;95.67;101443.19;5061945;28;20024;-78
2023/07/13 06:48:31;;;;;;;30.30;11.20;;;;;;;16.72;95.51;101441.03;5075807;28;20042;-78
2023/07/13 06:50:56;;;;;;;26.05;10.85;;;;;;;16.72;95.33;101443.75;5064343;28;20504;-78
2023/07/13 06:53:22;;;;;;;29.13;9.90;;;;;;;16.76;95.79;101448.78;5046683;28;20446;-78
2023/07/13 06:55:48;;;;;;;27.95;10.77;;;;;;;16.82;95.79;101451.94;5046800;28;20029;-78
2023/07/13 06:58:16;;;;;;;25.20;10.90;;;;;;;16.87;95.90;101455.97;5068233;28;20038;-78
2023/07/13 07:00:41;;;;;;;24.98;9.80;;;;;;;16.89;94.94;101456.69;5056834;28;20037;-67
2023/07/13 07:03:07;;;;;;;25.10;9.88;;;;;;;16.88;94.53;101452.28;5074298;28;20078;-68
2023/07/13 07:05:32;;;;;;;34.20;11.30;;;;;;;16.90;95.52;101455.69;5073793;28;20028;-68
2023/07/13 07:07:58;;;;;;;26.63;11.05;;;;;;;16.92;94.98;101453.69;5075540;28;20032;-70
2023/07/13 07:10:24;;;;;;;27.10;10.60;;;;;;;16.99;95.22;101453.16;5074229;28;20055;-68
2023/07/13 07:12:49;;;;;;;30.38;11.15;;;;;;;17.02;94.60;101459.16;5065947;28;20024;-69
2023/07/13 07:15:15;;;;;;;25.58;10.80;;;;;;;17.04;93.75;101451.75;5077838;28;20086;-71
2023/07/13 07:17:40;;;;;;;29.25;10.05;;;;;;;17.06;93.45;101455.16;5065635;28;20380;-70
2023/07/13 07:20:06;;;;;;;28.45;10.13;;;;;;;17.08;93.78;101455.03;5079728;28;20409;-70
2023/07/13 07:22:32;;;;;;;30.35;9.98;;;;;;;17.09;93.60;101454.03;5079791;28;20038;-70
2023/07/13 07:24:58;;;;;;;24.75;10.73;;;;;;;17.10;94.20;101459.31;5080368;28;20543;-71
2023/07/13 07:27:24;;;;;;;26.23;10.60;;;;;;;17.17;94.18;101465.03;5061442;28;20032;-70
2023/07/13 07:29:49;;;;;;;25.17;9.07;;;;;;;17.24;94.84;101465.34;5081485;28;20046;-69
2023/07/13 07:32:15;;;;;;;33.58;10.32;;;;;;;17.25;93.10;101470.63;5086126;28;20024;-71
2023/07/13 07:34:40;;;;;;;25.95;9.60;;;;;;;17.30;93.11;101462.91;5073973;28;20032;-69
2023/07/13 07:37:06;;;;;;;23.23;8.80;;;;;;;17.37;93.58;101467.78;5089280;28;20032;-68
2023/07/13 07:39:31;;;;;;;27.30;8.80;;;;;;;17.39;92.52;101466.63;5067097;28;20059;-70
2023/07/13 07:41:57;;;;;;;25.75;8.77;;;;;;;17.40;91.49;101473.78;5083348;28;20051;-69
2023/07/13 07:44:23;;;;;;;24.33;8.98;;;;;;;17.45;92.68;101470.63;5082395;28;20118;-77
2023/07/13 07:46:49;;;;;;;22.48;9.10;;;;;;;17.52;93.14;101470.94;5052217;28;20820;-77
2023/07/13 07:49:14;;;;;;;26.48;9.30;;;;;;;17.59;92.52;101469.38;5077828;28;20389;-77
2023/07/13 07:51:40;;;;;;;27.48;9.43;;;;;;;17.64;91.14;101467.94;5070769;28;20039;-77
2023/07/13 07:54:05;;;;;;;24.30;8.75;;;;;;;17.69;91.09;101472.06;5076042;28;20039;-77
2023/07/13 07:56:31;;;;;;;21.38;8.40;;;;;;;17.71;89.13;101475.50;5049218;28;20538;-77
2023/07/13 07:58:56;;;;;;;22.10;8.45;;;;;;;17.68;88.17;101481.25;5081205;28;20024;-77
2023/07/13 08:01:22;;;;;;;25.75;8.40;;;;;;;17.68;88.94;101482.09;5058135;28;20111;-77
2023/07/13 08:03:48;;;;;;;22.70;8.52;;;;;;;17.68;88.77;101483.97;5060010;28;20488;-77
2023/07/13 08:06:14;;;;;;;30.70;8.63;;;;;;;17.67;88.04;101474.94;5068440;28;20036;-76
2023/07/13 08:08:39;;;;;;;23.65;8.43;;;;;;;17.72;89.02;101475.38;5079036;28;20028;-64
2023/07/13 08:11:07;;;;;;;24.20;7.60;;;;;;;17.78;89.31;101474.78;5079150;28;20020;-64
2023/07/13 08:13:32;;;;;;;20.63;7.70;;;;;;;17.88;88.06;101480.22;5081621;28;20357;-64
2023/07/13 08:15:58;;;;;;;20.80;8.63;;;;;;;18.02;88.33;101481.66;5079400;28;20150;-64
2023/07/13 08:18:24;;;;;;;21.33;7.88;;;;;;;18.09;85.88;101487.38;5087781;28;20035;-64
2023/07/13 08:20:49;;;;;;;22.15;8.05;;;;;;;18.15;86.23;101476.75;5087740;28;20039;-64
2023/07/13 08:23:16;;;;;;;23.88;7.88;;;;;;;18.22;85.99;101478.91;5075627;28;20029;-64
2023/07/13 08:25:42;;;;;;;21.17;7.65;;;;;;;18.22;85.13;101489.78;5079689;28;20034;-64
2023/07/13 08:28:08;;;;;;;25.63;9.43;;;;;;;18.22;83.56;101476.19;5086171;28;20028;-63
2023/07/13 08:30:33;;;;;;;19.13;8.13;;;;;;;18.21;82.23;101488.06;5078733;28;20024;-63
2023/07/13 08:32:59;;;;;;;21.20;8.32;;;;;;;18.19;81.56;101481.94;5087008;28;20091;-65
2023/07/13 08:35:25;;;;;;;21.02;8.55;;;;;;;18.20;82.08;101487.22;5060441;28;20048;-64
2023/07/13 08:37:51;;;;;;;19.67;7.80;;;;;;;18.24;82.98;101485.88;5085455;28;20020;-63
2023/07/13 08:40:22;;;;;;;21.50;8.75;;;;;;;18.32;83.76;101474.28;5085554;28;20056;-64
2023/07/13 08:42:56;;;;;;;22.25;8.30;;;;;;;18.40;84.73;101478.97;5078781;28;20020;-64
2023/07/13 08:45:42;;;;;;;19.52;7.63;;;;;;;18.42;81.66;101483.28;5088742;28;20039;-63
2023/07/13 08:48:18;;;;;;;22.77;8.40;;;;;;;18.41;81.17;101481.56;5079144;28;20036;-64
2023/07/13 08:50:54;;;;;;;23.13;8.88;;;;;;;18.42;82.13;101483.28;5086295;28;20395;-64
2023/07/13 08:53:21;;;;;;;19.20;8.52;;;;;;;18.45;83.29;101480.25;5085815;28;20043;-63
2023/07/13 08:55:59;;;;;;;21.98;8.13;;;;;;;18.49;82.47;101475.38;5078119;28;20082;-64
2023/07/13 08:58:28;;;;;;;21.48;8.90;;;;;;;18.54;81.27;101474.91;5067611;28;20024;-64
2023/07/13 09:01:17;;;;;;;22.35;8.23;;;;;;;18.60;80.88;101474.34;5084710;28;20032;-64
2023/07/13 09:04:15;;;;;;;20.88;8.95;;;;;;;18.62;81.26;101469.59;5088025;28;20031;-64
2023/07/13 09:07:09;;;;;;;19.75;8.13;;;;;;;18.67;80.86;101461.84;5078519;28;20125;-63
2023/07/13 09:09:50;;;;;;;22.10;8.43;;;;;;;18.71;80.91;101474.13;5079157;28;20024;-64
2023/07/13 09:12:36;;;;;;;19.90;8.38;;;;;;;18.73;77.66;101482.13;5087839;28;20023;-65
2023/07/13 09:15:06;;;;;;;19.58;8.23;;;;;;;18.74;77.52;101476.56;5049749;28;20139;-76
2023/07/13 09:17:40;;;;;;;25.95;8.68;;;;;;;18.75;78.86;101478.25;5066842;28;20495;-78
2023/07/13 09:20:34;;;;;;;19.88;8.50;;;;;;;18.81;80.16;101474.94;5065908;28;20020;-78
2023/07/13 09:23:04;;;;;;;21.73;8.32;;;;;;;18.82;76.35;101476.66;5081697;28;20380;-77
2023/07/13 09:25:34;;;;;;;20.98;7.65;;;;;;;18.86;77.00;101477.25;5072982;28;20036;-78
2023/07/13 09:28:27;;;;;;;20.10;8.15;;;;;;;18.90;76.84;101472.34;5063283;28;20491;-78
2023/07/13 09:30:58;;;;;;;22.00;7.80;;;;;;;18.93;78.43;101472.91;5052449;28;20064;-78
2023/07/13 09:33:24;;;;;;;21.10;8.48;;;;;;;19.01;75.05;101474.88;5081236;28;20021;-78
2023/07/13 09:35:50;;;;;;;18.65;7.63;;;;;;;19.06;75.18;101472.53;5063280;28;20035;-78
2023/07/13 09:38:21;;;;;;;23.05;7.07;;;;;;;19.12;75.62;101476.50;5063163;28;20017;-77
2023/07/13 09:40:46;;;;;;;20.63;7.35;;;;;;;19.18;73.73;101470.44;5083986;28;20020;-78
2023/07/13 09:43:15;;;;;;;17.98;7.85;;;;;;;19.23;73.45;101473.56;5084497;28;20103;-78
2023/07/13 09:45:44;;;;;;;22.27;8.35;;;;;;;19.23;72.45;101475.44;5072538;28;20126;-78
2023/07/13 09:48:14;;;;;;;19.83;7.35;;;;;;;19.27;73.84;101479.56;5081391;28;20115;-78
2023/07/13 09:50:41;;;;;;;19.15;7.53;;;;;;;19.24;72.83;101474.41;5060278;28;20032;-78
2023/07/13 09:53:18;;;;;;;18.63;6.68;;;;;;;19.27;74.03;101475.00;5080881;28;20029;-78
2023/07/13 09:55:46;;;;;;;17.02;6.65;;;;;;;19.32;73.55;101480.81;5063853;28;20020;-78
2023/07/13 09:58:16;;;;;;;21.00;6.88;;;;;;;19.38;73.78;101482.06;5081024;28;20077;-78
2023/07/13 10:00:53;;;;;;;16.38;6.53;;;;;;;19.42;71.81;101477.19;5064880;28;20024;-78
2023/07/13 10:03:21;;;;;;;16.58;5.90;;;;;;;19.48;72.07;101474.66;5064912;28;20105;-78
2023/07/13 10:05:50;;;;;;;17.67;5.70;;;;;;;19.53;70.82;101485.09;5078619;28;20476;-78
2023/07/13 10:08:32;;;;;;;16.20;5.70;;;;;;;19.55;72.10;101488.56;5065151;28;20274;-78
2023/07/13 10:11:09;;;;;;;17.77;6.22;;;;;;;19.57;69.06;101481.06;5064011;28;20527;-78
2023/07/13 10:13:37;;;;;;;16.92;5.68;;;;;;;19.69;71.90;101478.94;5080412;28;20154;-78
2023/07/13 10:16:05;;;;;;;15.27;5.18;;;;;;;19.76;70.63;101480.03;5061518;28;20051;-78
2023/07/13 10:18:43;;;;;;;14.88;5.00;;;;;;;19.79;67.42;101495.25;5083345;28;20395;-77
2023/07/13 10:21:11;;;;;;;14.05;4.57;;;;;;;19.83;68.69;101493.94;5058199;28;20020;-77
2023/07/13 10:23:37;;;;;;;15.50;5.22;;;;;;;19.88;67.42;101488.84;5083495;28;20047;-78
2023/07/13 10:26:04;;;;;;;12.10;4.80;;;;;;;19.91;67.75;101494.00;5061301;28;20024;-78
2023/07/13 10:28:38;;;;;;;13.05;4.80;;;;;;;19.97;68.56;101482.47;5082952;28;20035;-78
2023/07/13 10:31:10;;;;;;;18.20;5.20;;;;;;;20.03;70.03;101478.22;5064952;28;20031;-78
2023/07/13 10:33:35;;;;;;;14.75;4.55;;;;;;;20.04;67.43;101478.06;5078466;28;20028;-78
2023/07/13 10:36:14;;;;;;;13.48;4.40;;;;;;;20.05;69.25;101487.97;5078268;28;20551;-78
2023/07/13 10:38:40;;;;;;;15.57;4.82;;;;;;;19.95;67.18;101489.94;5082506;28;20082;-78
2023/07/13 10:41:12;;;;;;;14.88;5.40;;;;;;;19.85;67.93;101503.66;5064301;28;20071;-78
2023/07/13 10:43:46;;;;;;;14.23;5.55;;;;;;;19.70;69.30;101503.31;5081581;28;20483;-78
2023/07/13 10:46:15;;;;;;;19.83;7.80;;;;;;;19.54;71.26;101514.09;5080113;28;20479;-77
2023/07/13 10:48:43;;;;;;;21.77;7.35;;;;;;;19.39;76.76;101509.16;5063235;28;20032;-77
2023/07/13 10:51:11;;;;;;;18.13;7.43;;;;;;;19.23;79.33;101510.88;5083273;28;20024;-77
2023/07/13 10:53:39;;;;;;;19.95;8.27;;;;;;;19.11;82.65;101518.41;5083049;28;20105;-77
2023/07/13 10:56:29;;;;;;;20.92;8.60;;;;;;;19.06;81.65;101520.72;5079647;28;20021;-77
2023/07/13 10:59:21;;;;;;;;;;;;;;;19.09;80.14;101509.50;5073617;28;20365;-77
2023/07/13 11:01:50;;;;;;;19.33;7.93;;;;;;;19.00;83.31;101511.28;5080433;28;19957;-78
2023/07/13 11:04:16;;;;;;;;;;;;;;;19.09;81.49;101515.81;5062390;28;20060;-78
2023/07/13 11:06:46;;;;;;;21.20;8.60;;;;;;;19.18;81.42;101511.31;5059848;28;19967;-78
2023/07/13 11:09:36;;;;;;;19.42;8.63;;;;;;;19.39;84.30;101497.41;5064228;28;20028;-78
2023/07/13 11:12:08;;;;;;;18.08;7.07;;;;;;;19.61;82.11;101503.44;5081371;28;20027;-78
2023/07/13 11:14:41;;;;;;;20.05;7.93;;;;;;;19.73;82.18;101503.00;5061448;28;20029;-78
2023/07/13 11:17:32;;;;;;;20.40;8.60;;;;;;;19.86;79.52;101515.44;5062441;28;20075;-78
2023/07/13 11:20:12;;;;;;;22.02;8.95;;;;;;;20.03;77.93;101500.94;5064692;28;20399;-78